Zim Chicago — A8SI9 — position and weather

sailwx.info

Track history (hours):
 
Tides and Currents Weather Stations Pressure Air Temp Water Temp Dewpoint Dewpoint Depression Visibility Wind Speed Wind Dir Waves Ship Positions

Zim Chicago

Last reported at 2014-Sep-16 07:23 UTC. Time now 2014-Sep-19 17:57 UTC.
Position N 01°15' E 104°12'.

Length 334 m; draft 11.4 m.

Type: Cargo ship. MMSI: 636014223.

Date/timePositionNaut miles runAvg speedWind from/ knotsBaromVisibWave heightAir tempDewpointWater temp
2014-Sep-16 07:23N 01°15' E 104°12'1518.4
2014-Sep-16 06:33N 01°13' E 103°57'7 6.5
2014-Sep-16 05:33N 01°16' E 103°51'0 0.1
2014-Sep-16 04:33N 01°16' E 103°51'0 0.1
2014-Sep-16 03:33N 01°16' E 103°51'0 0.0
2014-Sep-16 02:33N 01°16' E 103°51'0 0.0
2014-Sep-16 01:33N 01°16' E 103°51'0 0.0
2014-Sep-16 00:33N 01°16' E 103°51'0 0.0
2014-Sep-15 23:33N 01°16' E 103°51'0 0.0
2014-Sep-15 22:33N 01°16' E 103°51'0 0.0
2014-Sep-15 21:33N 01°16' E 103°51'0 0.0
2014-Sep-15 20:33N 01°16' E 103°51'0 0.0
2014-Sep-15 19:33N 01°16' E 103°51'0 0.0
2014-Sep-15 18:33N 01°16' E 103°51'0 0.0
2014-Sep-15 17:33N 01°16' E 103°51'0 0.0
2014-Sep-15 16:33N 01°16' E 103°51'0 0.0
2014-Sep-15 15:33N 01°16' E 103°51'0 0.0
2014-Sep-15 14:33N 01°16' E 103°51'0 0.0
2014-Sep-15 13:33N 01°16' E 103°51'0 0.0
2014-Sep-15 12:33N 01°16' E 103°51'0 0.0
2014-Sep-15 11:30N 01°16' E 103°51'0 0.0
2014-Sep-15 10:33N 01°16' E 103°51'0 0.0
2014-Sep-15 09:33N 01°16' E 103°51'0 0.0
2014-Sep-15 08:33N 01°16' E 103°51'0 0.0
2014-Sep-15 07:33N 01°16' E 103°51'0 0.0
2014-Sep-15 06:33N 01°16' E 103°51'0 0.0
2014-Sep-15 05:33N 01°16' E 103°51'0 0.0
2014-Sep-15 04:33N 01°16' E 103°51'0 0.0
2014-Sep-15 03:33N 01°16' E 103°51'0 0.0
2014-Sep-15 02:33N 01°16' E 103°51'0 0.0
2014-Sep-15 01:33N 01°16' E 103°51'0 0.0
2014-Sep-15 00:33N 01°16' E 103°51'0 0.0
2014-Sep-14 23:33N 01°16' E 103°51'0 0.0
2014-Sep-14 22:33N 01°16' E 103°51'0 0.0
2014-Sep-14 21:33N 01°16' E 103°51'0 0.0
2014-Sep-14 20:33N 01°16' E 103°51'0 0.0
2014-Sep-14 19:33N 01°16' E 103°51'0 0.4
2014-Sep-14 18:33N 01°15' E 103°51'6 5.6
2014-Sep-14 17:33N 01°14' E 103°57'1010.3
2014-Sep-14 16:33N 01°17' E 104°07'  
2014-Sep-10 05:13N 22°16' E 119°57'1218.5
2014-Sep-10 04:33N 22°26' E 120°05'1514.7
2014-Sep-10 03:33N 22°33' E 120°19'1 1.1
2014-Sep-10 02:28N 22°34' E 120°19'0 0.0
2014-Sep-10 01:28N 22°34' E 120°19'0 0.0
2014-Sep-10 00:28N 22°34' E 120°19'0 0.0
2014-Sep-09 23:28N 22°34' E 120°19'0 0.0
2014-Sep-09 21:28N 22°34' E 120°19'0 0.0
2014-Sep-09 20:16N 22°34' E 120°19'0 0.0
2014-Sep-09 19:22N 22°34' E 120°19'0 0.0
2014-Sep-09 17:28N 22°34' E 120°19'0 0.0
2014-Sep-09 16:10N 22°34' E 120°19'0 0.0
2014-Sep-09 13:22N 22°34' E 120°19'0 0.0
2014-Sep-09 11:28N 22°34' E 120°19'0 0.0
2014-Sep-09 10:22N 22°34' E 120°19'0 0.1
2014-Sep-09 09:16N 22°34' E 120°19'0 0.1
2014-Sep-09 08:28N 22°34' E 120°19'1 1.3
2014-Sep-09 07:34N 22°33' E 120°19'7 7.0
2014-Sep-09 06:33N 22°35' E 120°11'1918.7
2014-Sep-09 05:33N 22°50' E 120°00'  
Track history (hours):
 
Tides and Currents Weather Stations Pressure Air Temp Water Temp Dewpoint Dewpoint Depression Visibility Wind Speed Wind Dir Waves Ship Positions

Zim Chicago

Last reported at 2014-Sep-16 07:23 UTC. Time now 2014-Sep-19 17:57 UTC.
Position N 01°15' E 104°12'.

Length 334 m; draft 11.4 m.

Type: Cargo ship. MMSI: 636014223.

Date/timePositionNaut miles runAvg speedWind from/ knotsBaromVisibWave heightAir tempDewpointWater temp
2014-Sep-16 07:23N 01°15' E 104°12'1518.4
2014-Sep-16 06:33N 01°13' E 103°57'7 6.5
2014-Sep-16 05:33N 01°16' E 103°51'0 0.1
2014-Sep-16 04:33N 01°16' E 103°51'0 0.1
2014-Sep-16 03:33N 01°16' E 103°51'0 0.0
2014-Sep-16 02:33N 01°16' E 103°51'0 0.0
2014-Sep-16 01:33N 01°16' E 103°51'0 0.0
2014-Sep-16 00:33N 01°16' E 103°51'0 0.0
2014-Sep-15 23:33N 01°16' E 103°51'0 0.0
2014-Sep-15 22:33N 01°16' E 103°51'0 0.0
2014-Sep-15 21:33N 01°16' E 103°51'0 0.0
2014-Sep-15 20:33N 01°16' E 103°51'0 0.0
2014-Sep-15 19:33N 01°16' E 103°51'0 0.0
2014-Sep-15 18:33N 01°16' E 103°51'0 0.0
2014-Sep-15 17:33N 01°16' E 103°51'0 0.0
2014-Sep-15 16:33N 01°16' E 103°51'0 0.0
2014-Sep-15 15:33N 01°16' E 103°51'0 0.0
2014-Sep-15 14:33N 01°16' E 103°51'0 0.0
2014-Sep-15 13:33N 01°16' E 103°51'0 0.0
2014-Sep-15 12:33N 01°16' E 103°51'0 0.0
2014-Sep-15 11:30N 01°16' E 103°51'0 0.0
2014-Sep-15 10:33N 01°16' E 103°51'0 0.0
2014-Sep-15 09:33N 01°16' E 103°51'0 0.0
2014-Sep-15 08:33N 01°16' E 103°51'0 0.0
2014-Sep-15 07:33N 01°16' E 103°51'0 0.0
2014-Sep-15 06:33N 01°16' E 103°51'0 0.0
2014-Sep-15 05:33N 01°16' E 103°51'0 0.0
2014-Sep-15 04:33N 01°16' E 103°51'0 0.0
2014-Sep-15 03:33N 01°16' E 103°51'0 0.0
2014-Sep-15 02:33N 01°16' E 103°51'0 0.0
2014-Sep-15 01:33N 01°16' E 103°51'0 0.0
2014-Sep-15 00:33N 01°16' E 103°51'0 0.0
2014-Sep-14 23:33N 01°16' E 103°51'0 0.0
2014-Sep-14 22:33N 01°16' E 103°51'0 0.0
2014-Sep-14 21:33N 01°16' E 103°51'0 0.0
2014-Sep-14 20:33N 01°16' E 103°51'0 0.0
2014-Sep-14 19:33N 01°16' E 103°51'0 0.4
2014-Sep-14 18:33N 01°15' E 103°51'6 5.6
2014-Sep-14 17:33N 01°14' E 103°57'1010.3
2014-Sep-14 16:33N 01°17' E 104°07'  
2014-Sep-10 05:13N 22°16' E 119°57'1218.5
2014-Sep-10 04:33N 22°26' E 120°05'1514.7
2014-Sep-10 03:33N 22°33' E 120°19'1 1.1
2014-Sep-10 02:28N 22°34' E 120°19'0 0.0
2014-Sep-10 01:28N 22°34' E 120°19'0 0.0
2014-Sep-10 00:28N 22°34' E 120°19'0 0.0
2014-Sep-09 23:28N 22°34' E 120°19'0 0.0
2014-Sep-09 21:28N 22°34' E 120°19'0 0.0
2014-Sep-09 20:16N 22°34' E 120°19'0 0.0
2014-Sep-09 19:22N 22°34' E 120°19'0 0.0
2014-Sep-09 17:28N 22°34' E 120°19'0 0.0
2014-Sep-09 16:10N 22°34' E 120°19'0 0.0
2014-Sep-09 13:22N 22°34' E 120°19'0 0.0
2014-Sep-09 11:28N 22°34' E 120°19'0 0.0
2014-Sep-09 10:22N 22°34' E 120°19'0 0.1
2014-Sep-09 09:16N 22°34' E 120°19'0 0.1
2014-Sep-09 08:28N 22°34' E 120°19'1 1.3
2014-Sep-09 07:34N 22°33' E 120°19'7 7.0
2014-Sep-09 06:33N 22°35' E 120°11'1918.7
2014-Sep-09 05:33N 22°50' E 120°00'  

Dump ship's entire track history